createdAt,value
2018-03-28T00:01:50.834Z,7.29
2018-03-28T00:04:25.832Z,7.33
2018-03-28T00:07:00.948Z,7.26
2018-03-28T00:09:36.379Z,7.28
2018-03-28T00:12:11.735Z,7.30
2018-03-28T00:14:46.180Z,7.28
2018-03-28T00:17:21.522Z,7.28
2018-03-28T00:19:56.596Z,7.28
2018-03-28T00:22:31.551Z,7.36
2018-03-28T00:25:06.779Z,7.40
2018-03-28T00:27:41.667Z,7.45
2018-03-28T00:30:16.989Z,7.35
2018-03-28T00:32:52.492Z,7.34
2018-03-28T00:35:27.731Z,7.37
2018-03-28T00:38:02.276Z,7.39
2018-03-28T00:40:37.126Z,7.39
2018-03-28T00:43:11.996Z,7.34
2018-03-28T00:45:48.572Z,7.37
2018-03-28T00:48:23.568Z,7.37
2018-03-28T00:50:57.987Z,7.37
2018-03-28T00:53:33.526Z,7.40
2018-03-28T00:56:08.709Z,7.35
2018-03-28T00:58:43.491Z,7.38
2018-03-28T01:01:18.505Z,7.38
2018-03-28T01:03:53.660Z,7.39
2018-03-28T01:06:28.552Z,7.43
2018-03-28T01:09:03.232Z,7.46
2018-03-28T01:11:38.557Z,7.46
2018-03-28T01:14:13.659Z,7.44
2018-03-28T01:16:53.773Z,7.46
2018-03-28T01:19:28.790Z,7.52
2018-03-28T01:22:03.348Z,7.50
2018-03-28T01:24:38.244Z,7.50
2018-03-28T01:27:13.097Z,7.50
2018-03-28T01:29:48.734Z,7.58
2018-03-28T01:32:23.924Z,7.55
2018-03-28T01:34:58.759Z,7.51
2018-03-28T01:37:33.763Z,7.54
2018-03-28T01:40:08.679Z,7.60
2018-03-28T01:42:43.788Z,7.59
2018-03-28T01:45:18.680Z,7.62
2018-03-28T01:47:53.754Z,7.59
2018-03-28T01:50:28.711Z,7.52
2018-03-28T01:53:03.906Z,7.47
2018-03-28T01:55:38.683Z,7.46
2018-03-28T01:58:13.661Z,7.46
2018-03-28T02:00:48.607Z,7.47
2018-03-28T02:03:23.207Z,7.47
2018-03-28T02:05:58.143Z,7.50
2018-03-28T02:08:32.867Z,7.56
2018-03-28T02:11:07.943Z,7.58
2018-03-28T02:13:42.803Z,7.52
2018-03-28T02:16:17.511Z,7.52
2018-03-28T02:18:52.824Z,7.54
2018-03-28T02:21:27.662Z,7.55
2018-03-28T02:24:02.819Z,7.57
2018-03-28T02:26:37.748Z,7.57
2018-03-28T02:29:13.024Z,7.62
2018-03-28T02:31:47.957Z,7.66
2018-03-28T02:34:22.876Z,7.64
2018-03-28T02:36:58.716Z,7.64
2018-03-28T02:39:33.539Z,7.63
2018-03-28T02:42:08.388Z,7.62
2018-03-28T02:44:43.120Z,7.63
2018-03-28T02:47:18.252Z,7.64
2018-03-28T02:49:52.999Z,7.59
2018-03-28T02:52:28.013Z,7.56
2018-03-28T02:55:03.152Z,7.58
2018-03-28T02:57:38.003Z,7.57
2018-03-28T03:00:12.803Z,7.56
2018-03-28T03:02:47.851Z,7.57
2018-03-28T03:05:22.459Z,7.61
2018-03-28T03:07:57.871Z,7.62
2018-03-28T03:10:33.022Z,7.60
2018-03-28T03:13:07.899Z,7.62
2018-03-28T03:15:43.012Z,7.69
2018-03-28T03:18:17.996Z,7.73
2018-03-28T03:20:53.001Z,7.76
2018-03-28T03:23:28.204Z,7.77
2018-03-28T03:26:02.588Z,7.76
2018-03-28T03:28:37.385Z,7.65
2018-03-28T03:31:12.284Z,7.57
2018-03-28T03:33:47.510Z,7.53
2018-03-28T03:36:22.312Z,7.54
2018-03-28T03:38:57.255Z,7.56
2018-03-28T03:41:32.032Z,7.52
2018-03-28T03:44:07.143Z,7.52
2018-03-28T03:46:42.176Z,7.54
2018-03-28T03:49:17.620Z,7.58
2018-03-28T03:51:52.983Z,7.54
2018-03-28T03:54:27.591Z,7.48
2018-03-28T03:57:02.480Z,7.47
2018-03-28T03:59:37.396Z,7.49
2018-03-28T04:02:12.571Z,7.47
2018-03-28T04:04:47.251Z,7.52
2018-03-28T04:07:22.623Z,7.53
2018-03-28T04:09:57.342Z,7.52
2018-03-28T04:12:32.146Z,7.52
2018-03-28T04:15:07.999Z,7.52
2018-03-28T04:17:47.062Z,7.52
2018-03-28T04:20:22.166Z,7.51
2018-03-28T04:22:57.191Z,7.49
2018-03-28T04:25:32.173Z,7.47
2018-03-28T04:28:07.146Z,7.48
2018-03-28T04:30:42.048Z,7.44
2018-03-28T04:33:17.247Z,7.42
2018-03-28T04:35:52.790Z,7.42
2018-03-28T04:38:27.437Z,7.44
2018-03-28T04:41:02.321Z,7.43
2018-03-28T04:43:37.436Z,7.42
2018-03-28T04:46:12.434Z,7.48
2018-03-28T04:48:47.418Z,7.57
2018-03-28T04:51:22.512Z,7.68
2018-03-28T04:53:57.419Z,7.73
2018-03-28T04:56:32.408Z,7.79
2018-03-28T04:59:07.736Z,7.81
2018-03-28T05:01:42.621Z,7.83
2018-03-28T05:04:17.904Z,7.82
2018-03-28T05:06:53.056Z,7.79
2018-03-28T05:09:28.364Z,7.79
2018-03-28T05:12:03.485Z,7.84
2018-03-28T05:14:38.580Z,7.91
2018-03-28T05:17:14.196Z,7.98
2018-03-28T05:19:48.792Z,8.01
2018-03-28T05:22:24.198Z,8.02
2018-03-28T05:24:58.842Z,8.04
2018-03-28T05:27:33.780Z,8.05
2018-03-28T05:30:09.134Z,8.08
2018-03-28T05:32:43.561Z,8.06
2018-03-28T05:35:19.316Z,8.07
2018-03-28T05:37:54.506Z,8.16
2018-03-28T05:40:29.666Z,8.28
2018-03-28T05:43:05.187Z,8.33
2018-03-28T05:45:39.607Z,8.33
2018-03-28T05:48:14.648Z,8.31
2018-03-28T05:50:49.420Z,8.33
2018-03-28T05:53:24.798Z,8.33
2018-03-28T05:55:59.619Z,8.34
2018-03-28T05:58:34.402Z,8.39
2018-03-28T06:01:09.115Z,8.46
2018-03-28T06:03:44.339Z,8.48
2018-03-28T06:06:19.452Z,8.49
2018-03-28T06:08:55.360Z,8.50
2018-03-28T06:11:30.283Z,8.53
2018-03-28T06:14:04.986Z,8.56
2018-03-28T06:16:40.396Z,8.58
2018-03-28T06:19:15.258Z,8.57
2018-03-28T06:21:50.415Z,8.56
2018-03-28T06:24:25.668Z,8.54
2018-03-28T06:27:00.839Z,8.56
2018-03-28T06:29:35.942Z,8.57
2018-03-28T06:32:11.767Z,8.63
2018-03-28T06:34:46.507Z,8.70
2018-03-28T06:37:21.632Z,8.75
2018-03-28T06:39:56.579Z,8.80
2018-03-28T06:42:31.696Z,8.87
2018-03-28T06:45:06.882Z,8.86
2018-03-28T06:47:41.592Z,8.86
2018-03-28T06:50:16.701Z,8.87
2018-03-28T06:52:51.492Z,8.80
2018-03-28T06:55:26.108Z,8.78
2018-03-28T06:58:01.414Z,8.73
2018-03-28T07:00:36.558Z,8.68
2018-03-28T07:03:11.881Z,8.71
2018-03-28T07:05:46.988Z,8.70
2018-03-28T07:08:22.131Z,8.66
2018-03-28T07:10:56.862Z,8.60
2018-03-28T07:13:31.848Z,8.57
2018-03-28T07:16:06.576Z,8.58
2018-03-28T07:18:41.640Z,8.63
2018-03-28T07:21:16.591Z,8.62
2018-03-28T07:23:51.580Z,8.63
2018-03-28T07:26:26.674Z,8.69
2018-03-28T07:29:01.228Z,8.74
2018-03-28T07:31:36.116Z,8.72
2018-03-28T07:34:12.007Z,8.73
2018-03-28T07:36:46.411Z,8.73
2018-03-28T07:39:21.359Z,8.71
2018-03-28T07:41:56.522Z,8.71
2018-03-28T07:44:31.540Z,8.73
2018-03-28T07:47:06.670Z,8.80
2018-03-28T07:49:41.578Z,8.83
2018-03-28T07:52:16.607Z,8.85
2018-03-28T07:54:51.191Z,8.92
2018-03-28T07:57:26.080Z,8.94
2018-03-28T08:00:01.204Z,8.88
2018-03-28T08:02:36.393Z,8.84
2018-03-28T08:05:11.912Z,8.85
2018-03-28T08:07:46.974Z,8.85
2018-03-28T08:10:21.914Z,8.88
2018-03-28T08:12:56.712Z,8.88
2018-03-28T08:15:31.747Z,8.91
2018-03-28T08:18:06.263Z,8.86
2018-03-28T08:20:41.375Z,8.87
2018-03-28T08:23:16.812Z,8.88
2018-03-28T08:25:51.752Z,8.94
2018-03-28T08:28:26.832Z,8.92
2018-03-28T08:31:01.335Z,8.95
2018-03-28T08:33:36.588Z,8.96
2018-03-28T08:36:11.932Z,8.99
2018-03-28T08:38:47.056Z,9.00
2018-03-28T08:41:21.969Z,8.95
2018-03-28T08:43:56.959Z,8.92
2018-03-28T08:46:32.026Z,8.86
2018-03-28T08:49:06.996Z,8.87
2018-03-28T08:51:41.988Z,8.83
2018-03-28T08:54:17.109Z,8.91
2018-03-28T08:56:51.774Z,9.01
2018-03-28T08:59:26.976Z,9.07
2018-03-28T09:02:01.859Z,9.10
2018-03-28T09:04:36.804Z,9.16
2018-03-28T09:07:12.062Z,9.19
2018-03-28T09:09:47.624Z,9.15
2018-03-28T09:12:22.248Z,9.16
2018-03-28T09:14:56.978Z,9.24
2018-03-28T09:17:31.771Z,9.26
2018-03-28T09:20:07.024Z,9.31
2018-03-28T09:22:41.719Z,9.42
2018-03-28T09:25:17.266Z,9.46
2018-03-28T09:27:51.764Z,9.35
2018-03-28T09:30:26.750Z,9.20
2018-03-28T09:33:01.811Z,9.16
2018-03-28T09:35:36.767Z,9.25
2018-03-28T09:38:12.172Z,9.35
2018-03-28T09:40:47.189Z,9.39
2018-03-28T09:43:22.075Z,9.48
2018-03-28T09:45:57.040Z,9.64
2018-03-28T09:48:31.885Z,9.59
2018-03-28T09:51:06.907Z,9.50
2018-03-28T09:53:41.768Z,9.44
2018-03-28T09:56:16.904Z,9.37
2018-03-28T09:58:51.970Z,9.33
2018-03-28T10:01:29.961Z,9.39
2018-03-28T10:04:10.248Z,9.39
2018-03-28T10:06:44.644Z,9.35
2018-03-28T10:09:19.967Z,9.40
2018-03-28T10:11:55.880Z,9.56
2018-03-28T10:14:30.779Z,9.61
2018-03-28T10:17:05.067Z,9.57
2018-03-28T10:19:40.091Z,9.59
2018-03-28T10:22:14.916Z,9.65
2018-03-28T10:24:50.059Z,9.86
2018-03-28T10:27:25.015Z,9.77
2018-03-28T10:29:59.832Z,9.69
2018-03-28T10:32:34.805Z,9.76
2018-03-28T10:35:09.958Z,9.88
2018-03-28T10:37:44.515Z,10.10
2018-03-28T10:40:19.272Z,10.32
2018-03-28T10:42:53.991Z,10.50
2018-03-28T10:45:29.783Z,10.42
2018-03-28T10:48:04.863Z,10.46
2018-03-28T10:50:40.308Z,10.60
2018-03-28T10:53:15.455Z,10.75
2018-03-28T10:55:50.208Z,10.72
2018-03-28T10:58:25.280Z,10.72
2018-03-28T11:01:00.175Z,10.79
2018-03-28T11:03:35.036Z,10.75
2018-03-28T11:06:10.076Z,10.81
2018-03-28T11:08:44.980Z,10.94
2018-03-28T11:11:20.152Z,11.05
2018-03-28T11:13:54.559Z,11.06
2018-03-28T11:16:29.726Z,11.10
2018-03-28T11:19:04.537Z,11.11
2018-03-28T11:21:40.057Z,11.12
2018-03-28T11:24:14.808Z,11.17
2018-03-28T11:26:50.015Z,11.18
2018-03-28T11:29:24.539Z,11.27
2018-03-28T11:31:59.452Z,11.39
2018-03-28T11:34:34.515Z,11.41
2018-03-28T11:37:10.044Z,11.35
2018-03-28T11:39:44.972Z,11.30
2018-03-28T11:42:20.000Z,11.28
2018-03-28T11:44:55.056Z,11.18
2018-03-28T11:47:30.477Z,11.10
2018-03-28T11:50:04.846Z,11.10
2018-03-28T11:52:40.189Z,11.07
2018-03-28T11:55:15.189Z,11.00
2018-03-28T11:57:50.192Z,10.94
2018-03-28T12:00:25.119Z,10.89
2018-03-28T12:03:00.076Z,10.96
2018-03-28T12:05:35.075Z,11.02
2018-03-28T12:08:09.587Z,11.04
2018-03-28T12:10:44.556Z,11.09
2018-03-28T12:13:19.484Z,11.11
2018-03-28T12:15:54.219Z,11.21
2018-03-28T12:18:29.358Z,11.31
2018-03-28T12:21:04.182Z,11.33
2018-03-28T12:23:38.839Z,11.42
2018-03-28T12:26:14.402Z,11.52
2018-03-28T12:28:49.575Z,11.55
2018-03-28T12:31:24.334Z,11.63
2018-03-28T12:33:59.139Z,11.74
2018-03-28T12:36:33.641Z,11.88
2018-03-28T12:39:07.903Z,12.05
2018-03-28T12:41:43.126Z,12.09
2018-03-28T12:44:18.342Z,12.12
2018-03-28T12:46:53.723Z,12.06
2018-03-28T12:49:28.317Z,12.00
2018-03-28T12:52:03.354Z,11.89
2018-03-28T12:54:38.242Z,11.87
2018-03-28T12:57:12.791Z,11.78
2018-03-28T12:59:48.254Z,11.84
2018-03-28T13:02:23.466Z,11.81
2018-03-28T13:04:58.379Z,11.83
2018-03-28T13:07:32.771Z,11.84
2018-03-28T13:10:07.646Z,11.73
2018-03-28T13:12:42.385Z,11.69
2018-03-28T13:15:17.279Z,11.68
2018-03-28T13:17:52.227Z,11.59
2018-03-28T13:20:26.978Z,11.57
2018-03-28T13:23:02.425Z,11.60
2018-03-28T13:25:37.307Z,11.67
2018-03-28T13:28:12.721Z,11.78
2018-03-28T13:30:47.798Z,11.90
2018-03-28T13:33:22.747Z,11.91
2018-03-28T13:35:57.633Z,11.90
2018-03-28T13:38:32.527Z,11.88
2018-03-28T13:41:07.454Z,11.85
2018-03-28T13:43:42.168Z,11.84
2018-03-28T13:46:17.555Z,11.73
2018-03-28T13:48:52.363Z,11.67
2018-03-28T13:51:27.272Z,11.69
2018-03-28T13:54:01.752Z,11.67
2018-03-28T13:56:36.480Z,11.68
2018-03-28T13:59:12.683Z,11.69
2018-03-28T14:01:47.495Z,11.70
2018-03-28T14:04:22.648Z,11.74
2018-03-28T14:06:57.248Z,11.79
2018-03-28T14:09:32.306Z,11.85
2018-03-28T14:12:07.851Z,11.88
2018-03-28T14:14:42.871Z,11.80
2018-03-28T14:17:17.918Z,11.71
2018-03-28T14:19:52.523Z,11.74
2018-03-28T14:22:27.591Z,11.76
2018-03-28T14:25:02.516Z,11.74
2018-03-28T14:27:38.331Z,11.68
2018-03-28T14:30:12.918Z,11.55
2018-03-28T14:32:48.360Z,11.24
2018-03-28T14:35:22.873Z,11.01
2018-03-28T14:37:58.013Z,10.83
2018-03-28T14:40:33.177Z,10.72
2018-03-28T14:43:08.379Z,10.70
2018-03-28T14:45:43.530Z,10.74
2018-03-28T14:48:18.541Z,10.72
2018-03-28T14:50:58.417Z,10.70
2018-03-28T14:53:32.914Z,10.50
2018-03-28T14:56:07.684Z,10.35
2018-03-28T14:58:42.784Z,10.25
2018-03-28T15:01:17.492Z,10.17
2018-03-28T15:03:52.584Z,10.09
2018-03-28T15:06:27.892Z,10.03
2018-03-28T15:09:02.947Z,10.01
2018-03-28T15:11:37.835Z,10.00
2018-03-28T15:14:12.909Z,9.87
2018-03-28T15:16:47.741Z,9.93
2018-03-28T15:19:22.451Z,9.98
2018-03-28T15:21:57.606Z,9.96
2018-03-28T15:24:32.616Z,10.01
2018-03-28T15:27:07.612Z,9.99
2018-03-28T15:29:42.613Z,9.98
2018-03-28T15:32:17.612Z,9.94
2018-03-28T15:34:52.610Z,9.96
2018-03-28T15:37:27.718Z,9.87
2018-03-28T15:40:02.535Z,9.89
2018-03-28T15:42:37.592Z,9.93
2018-03-28T15:45:12.987Z,9.89
2018-03-28T15:47:48.108Z,9.73
2018-03-28T15:50:23.108Z,9.61
2018-03-28T15:52:58.556Z,9.56
2018-03-28T15:55:33.984Z,9.56
2018-03-28T15:58:08.766Z,9.56
2018-03-28T16:00:43.976Z,9.58
2018-03-28T16:06:19.215Z,9.63
2018-03-28T16:08:53.987Z,9.67
2018-03-28T16:11:29.155Z,9.66
2018-03-28T16:14:03.776Z,9.64
2018-03-28T16:16:38.843Z,9.65
2018-03-28T16:19:13.655Z,9.61
2018-03-28T16:21:48.728Z,9.59
2018-03-28T16:24:23.624Z,9.62
2018-03-28T16:26:58.406Z,9.74
2018-03-28T16:29:33.251Z,9.79
2018-03-28T16:32:08.239Z,9.74
2018-03-28T16:34:43.019Z,9.61
2018-03-28T16:37:18.125Z,9.46
2018-03-28T16:39:52.742Z,9.35
2018-03-28T16:42:27.772Z,9.29
2018-03-28T16:45:02.196Z,9.31
2018-03-28T16:47:37.660Z,9.27
2018-03-28T16:50:12.997Z,9.18
2018-03-28T16:52:47.840Z,9.07
2018-03-28T16:55:22.879Z,8.96
2018-03-28T16:57:57.685Z,8.88
2018-03-28T17:00:32.612Z,8.92
2018-03-28T17:03:07.985Z,8.91
2018-03-28T17:05:42.895Z,8.94
2018-03-28T17:08:18.037Z,8.85
2018-03-28T17:10:52.819Z,8.82
2018-03-28T17:13:27.834Z,8.85
2018-03-28T17:16:02.694Z,8.78
2018-03-28T17:18:37.775Z,8.80
2018-03-28T17:21:15.083Z,8.78
2018-03-28T17:23:50.307Z,8.82
2018-03-28T17:26:26.093Z,8.81
2018-03-28T17:29:00.916Z,8.65
2018-03-28T17:31:35.704Z,8.55
2018-03-28T17:34:10.836Z,8.44
2018-03-28T17:36:45.843Z,8.41
2018-03-28T17:39:20.504Z,8.39
2018-03-28T17:41:55.259Z,8.42
2018-03-28T17:44:30.163Z,8.46
2018-03-28T17:47:05.012Z,8.37
2018-03-28T17:49:40.117Z,8.36
2018-03-28T17:52:14.816Z,8.40
2018-03-28T17:54:49.931Z,8.41
2018-03-28T17:57:28.480Z,8.49
2018-03-28T18:00:03.144Z,8.46
2018-03-28T18:02:38.705Z,8.41
2018-03-28T18:05:13.551Z,8.39
2018-03-28T18:07:48.407Z,8.33
2018-03-28T18:10:23.823Z,8.22
2018-03-28T18:12:58.898Z,8.09
2018-03-28T18:15:33.839Z,8.02
2018-03-28T18:18:08.866Z,7.93
2018-03-28T18:20:43.763Z,7.77
2018-03-28T18:23:18.634Z,7.86
2018-03-28T18:25:53.407Z,7.88
2018-03-28T18:28:28.516Z,7.78
2018-03-28T18:31:03.927Z,7.64
2018-03-28T18:33:39.415Z,7.67
2018-03-28T18:36:14.347Z,7.64
2018-03-28T18:38:49.351Z,7.57
2018-03-28T18:41:24.492Z,7.50
2018-03-28T18:43:59.095Z,7.54
2018-03-28T18:46:36.068Z,7.49
2018-03-28T18:49:10.993Z,7.47
2018-03-28T18:51:45.730Z,7.44
2018-03-28T18:54:20.681Z,7.39
2018-03-28T18:56:55.358Z,7.35
2018-03-28T18:59:30.731Z,7.31
2018-03-28T19:02:04.937Z,7.27
2018-03-28T19:04:40.039Z,7.34
2018-03-28T19:07:14.922Z,7.43
2018-03-28T19:09:49.979Z,7.39
2018-03-28T19:12:24.566Z,7.38
2018-03-28T19:14:59.424Z,7.34
2018-03-28T19:17:34.427Z,7.32
2018-03-28T19:20:09.287Z,7.36
2018-03-28T19:22:44.155Z,7.41
2018-03-28T19:25:19.213Z,7.35
2018-03-28T19:27:54.121Z,7.36
2018-03-28T19:30:29.708Z,7.37
2018-03-28T19:33:04.625Z,7.27
2018-03-28T19:35:40.020Z,7.23
2018-03-28T19:38:15.304Z,7.30
2018-03-28T19:40:50.183Z,7.44
2018-03-28T19:43:24.650Z,7.45
2018-03-28T19:45:59.142Z,7.46
2018-03-28T19:48:34.935Z,7.58
2018-03-28T19:51:10.012Z,7.64
2018-03-28T19:53:44.522Z,7.73
2018-03-28T19:56:19.535Z,7.85
2018-03-28T19:58:54.623Z,7.87
2018-03-28T20:01:30.142Z,7.94
2018-03-28T20:04:05.150Z,8.00
2018-03-28T20:06:40.135Z,7.98
2018-03-28T20:09:14.644Z,7.99
2018-03-28T20:11:49.816Z,8.00
2018-03-28T20:14:25.306Z,7.95
2018-03-28T20:17:00.210Z,7.90
2018-03-28T20:19:35.184Z,7.83
2018-03-28T20:22:10.347Z,7.79
2018-03-28T20:24:45.178Z,7.64
2018-03-28T20:27:19.768Z,7.62
2018-03-28T20:29:55.295Z,7.49
2018-03-28T20:32:30.345Z,7.47
2018-03-28T20:35:05.400Z,7.44
2018-03-28T20:37:40.384Z,7.53
2018-03-28T20:40:15.875Z,7.53
2018-03-28T20:42:50.803Z,7.40
2018-03-28T20:45:25.363Z,7.29
2018-03-28T20:47:59.841Z,7.39
2018-03-28T20:50:34.781Z,7.52
2018-03-28T20:53:10.258Z,7.65
2018-03-28T20:55:45.344Z,7.70
2018-03-28T20:58:20.283Z,7.72
2018-03-28T21:00:54.910Z,7.81
2018-03-28T21:03:29.451Z,7.90
2018-03-28T21:06:03.875Z,7.98
2018-03-28T21:08:38.595Z,7.89
2018-03-28T21:11:13.394Z,7.88
2018-03-28T21:13:48.431Z,7.88
2018-03-28T21:16:23.341Z,7.89
2018-03-28T21:18:58.419Z,7.99
2018-03-28T21:21:33.423Z,8.06
2018-03-28T21:24:09.043Z,8.11
2018-03-28T21:26:43.871Z,8.15
2018-03-28T21:29:19.053Z,8.12
2018-03-28T21:31:53.641Z,8.11
2018-03-28T21:34:28.692Z,8.09
2018-03-28T21:37:03.559Z,8.04
2018-03-28T21:39:38.484Z,8.00
2018-03-28T21:42:13.809Z,7.99
2018-03-28T21:44:48.779Z,8.02
2018-03-28T21:47:23.529Z,8.06
2018-03-28T21:49:58.562Z,8.09
2018-03-28T21:52:33.961Z,8.13
2018-03-28T21:55:08.619Z,8.10
2018-03-28T21:57:43.534Z,8.07
2018-03-28T22:00:18.395Z,8.08
2018-03-28T22:03:01.166Z,8.10
2018-03-28T22:05:38.693Z,8.15
2018-03-28T22:08:13.843Z,8.12
2018-03-28T22:10:48.979Z,8.10
2018-03-28T22:13:23.907Z,8.12
2018-03-28T22:15:58.830Z,7.92
2018-03-28T22:18:33.537Z,7.54
2018-03-28T22:21:08.455Z,7.20
2018-03-28T22:23:43.115Z,7.03
2018-03-28T22:26:17.706Z,6.86
2018-03-28T22:28:52.682Z,6.81
2018-03-28T22:31:27.754Z,6.75
2018-03-28T22:34:02.564Z,6.66
2018-03-28T22:36:37.519Z,6.54
2018-03-28T22:39:13.920Z,6.54
2018-03-28T22:41:49.494Z,6.57
2018-03-28T22:44:24.068Z,6.64
2018-03-28T22:46:59.190Z,6.59
2018-03-28T22:49:34.098Z,6.48
2018-03-28T22:52:09.042Z,6.45
2018-03-28T22:54:44.202Z,6.25
2018-03-28T22:57:19.196Z,6.13
2018-03-28T22:59:53.796Z,5.80
2018-03-28T23:02:28.880Z,5.59
2018-03-28T23:05:03.561Z,5.46
2018-03-28T23:07:39.182Z,5.35
2018-03-28T23:10:14.484Z,5.31
2018-03-28T23:12:49.183Z,5.23
2018-03-28T23:15:23.970Z,5.26
2018-03-28T23:17:58.854Z,5.17
2018-03-28T23:20:33.675Z,5.12
2018-03-28T23:23:09.191Z,5.07
2018-03-28T23:25:43.966Z,5.02
2018-03-28T23:28:18.594Z,5.04
2018-03-28T23:30:53.389Z,5.04
2018-03-28T23:33:28.050Z,4.99
2018-03-28T23:36:03.052Z,4.85
2018-03-28T23:38:37.751Z,4.83
2018-03-28T23:41:13.934Z,4.88
2018-03-28T23:43:48.727Z,4.92
2018-03-28T23:46:23.719Z,4.83
2018-03-28T23:48:58.639Z,4.83
2018-03-28T23:51:33.714Z,4.91
2018-03-28T23:54:08.716Z,4.93
2018-03-28T23:56:44.118Z,4.82
2018-03-28T23:59:19.074Z,4.78
